createdAt,value
2018-08-25T00:05:42.040Z,18.19
2018-08-25T00:08:26.427Z,18.31
2018-08-25T00:11:27.142Z,18.12
2018-08-25T00:17:16.550Z,18.12
2018-08-25T00:23:12.109Z,18.00
2018-08-25T00:25:45.122Z,18.06
2018-08-25T00:28:18.231Z,17.94
2018-08-25T00:30:57.211Z,17.94
2018-08-25T00:33:30.191Z,17.94
2018-08-25T00:36:03.488Z,17.94
2018-08-25T00:38:36.413Z,17.94
2018-08-25T00:41:09.461Z,17.94
2018-08-25T00:43:42.492Z,17.94
2018-08-25T00:46:16.015Z,17.94
2018-08-25T00:48:49.160Z,17.94
2018-08-25T00:51:22.189Z,18.00
2018-08-25T00:53:55.266Z,18.00
2018-08-25T00:56:28.292Z,17.94
2018-08-25T00:59:01.378Z,17.94
2018-08-25T01:01:34.489Z,17.94
2018-08-25T01:04:07.707Z,17.87
2018-08-25T01:06:40.774Z,17.87
2018-08-25T01:09:13.835Z,17.87
2018-08-25T01:11:46.895Z,17.87
2018-08-25T01:14:19.876Z,17.87
2018-08-25T01:16:52.845Z,17.81
2018-08-25T01:19:25.925Z,17.81
2018-08-25T01:21:59.001Z,17.81
2018-08-25T01:24:31.931Z,17.75
2018-08-25T01:27:05.010Z,17.75
2018-08-25T01:29:38.016Z,17.75
2018-08-25T01:32:31.053Z,17.75
2018-08-25T01:35:04.289Z,17.75
2018-08-25T01:37:37.360Z,17.69
2018-08-25T01:40:10.390Z,17.62
2018-08-25T01:42:43.334Z,17.62
2018-08-25T01:45:16.554Z,17.62
2018-08-25T01:47:49.645Z,17.69
2018-08-25T01:50:22.700Z,17.62
2018-08-25T01:52:55.658Z,17.56
2018-08-25T01:55:28.834Z,17.56
2018-08-25T01:58:01.963Z,17.62
2018-08-25T02:00:35.112Z,17.56
2018-08-25T02:03:08.303Z,17.56
2018-08-25T02:05:41.445Z,17.44
2018-08-25T02:08:14.591Z,17.44
2018-08-25T02:10:47.800Z,17.37
2018-08-25T02:13:20.982Z,17.50
2018-08-25T02:15:54.102Z,17.37
2018-08-25T02:18:27.224Z,17.44
2018-08-25T02:21:00.319Z,17.31
2018-08-25T02:23:33.588Z,17.31
2018-08-25T02:26:06.657Z,17.44
2018-08-25T02:28:39.776Z,17.31
2018-08-25T02:31:12.934Z,17.31
2018-08-25T02:33:46.020Z,17.37
2018-08-25T02:36:19.179Z,17.37
2018-08-25T02:38:52.380Z,17.31
2018-08-25T02:41:25.672Z,17.25
2018-08-25T02:43:59.263Z,17.31
2018-08-25T02:46:32.390Z,17.31
2018-08-25T02:49:05.382Z,17.25
2018-08-25T02:51:38.563Z,17.19
2018-08-25T02:54:11.667Z,17.25
2018-08-25T02:56:44.784Z,17.25
2018-08-25T02:59:17.857Z,17.31
2018-08-25T03:01:50.899Z,17.19
2018-08-25T03:04:23.975Z,17.25
2018-08-25T03:06:56.968Z,17.37
2018-08-25T03:09:30.255Z,17.37
2018-08-25T03:12:03.225Z,17.44
2018-08-25T03:14:36.340Z,17.44
2018-08-25T03:17:09.542Z,17.50
2018-08-25T03:19:42.702Z,17.56
2018-08-25T03:22:15.762Z,17.50
2018-08-25T03:24:49.576Z,17.44
2018-08-25T03:27:22.708Z,17.50
2018-08-25T03:29:55.890Z,17.50
2018-08-25T03:32:29.184Z,17.44
2018-08-25T03:35:02.169Z,17.44
2018-08-25T03:37:35.278Z,17.44
2018-08-25T03:40:08.483Z,17.37
2018-08-25T03:42:41.650Z,17.44
2018-08-25T03:45:14.731Z,17.37
2018-08-25T03:47:47.960Z,17.31
2018-08-25T03:50:21.107Z,17.31
2018-08-25T03:52:54.107Z,17.31
2018-08-25T03:55:27.228Z,17.19
2018-08-25T03:58:00.220Z,17.31
2018-08-25T04:00:33.399Z,17.25
2018-08-25T04:03:06.371Z,17.31
2018-08-25T04:05:39.612Z,17.31
2018-08-25T04:08:12.683Z,17.31
2018-08-25T04:10:45.651Z,17.31
2018-08-25T04:13:18.673Z,17.25
2018-08-25T04:15:51.848Z,17.25
2018-08-25T04:18:25.037Z,17.31
2018-08-25T04:20:58.158Z,17.25
2018-08-25T04:23:31.305Z,17.31
2018-08-25T04:26:04.588Z,17.25
2018-08-25T04:28:37.560Z,17.25
2018-08-25T04:31:10.718Z,17.31
2018-08-25T04:34:03.962Z,17.31
2018-08-25T04:36:37.035Z,17.37
2018-08-25T04:39:11.099Z,17.37
2018-08-25T04:41:44.130Z,17.44
2018-08-25T04:44:17.172Z,17.44
2018-08-25T04:46:50.423Z,17.44
2018-08-25T04:49:23.561Z,17.37
2018-08-25T04:51:56.808Z,17.50
2018-08-25T04:54:29.938Z,17.44
2018-08-25T04:57:03.079Z,17.44
2018-08-25T04:59:36.107Z,17.44
2018-08-25T05:02:09.199Z,17.44
2018-08-25T05:04:42.301Z,17.56
2018-08-25T05:07:15.417Z,17.50
2018-08-25T05:09:48.482Z,17.56
2018-08-25T05:12:21.513Z,17.50
2018-08-25T05:14:54.586Z,17.56
2018-08-25T05:17:27.752Z,17.56
2018-08-25T05:20:01.029Z,17.50
2018-08-25T05:22:34.158Z,17.50
2018-08-25T05:25:07.717Z,17.56
2018-08-25T05:27:40.788Z,17.56
2018-08-25T05:30:13.807Z,17.62
2018-08-25T05:32:46.891Z,17.81
2018-08-25T05:35:20.115Z,17.62
2018-08-25T05:37:53.391Z,17.56
2018-08-25T05:40:26.474Z,17.56
2018-08-25T05:42:59.513Z,17.44
2018-08-25T05:45:32.473Z,17.44
2018-08-25T05:48:05.619Z,17.56
2018-08-25T05:50:38.828Z,17.50
2018-08-25T05:53:11.825Z,17.62
2018-08-25T05:55:44.780Z,17.69
2018-08-25T05:58:18.000Z,17.75
2018-08-25T06:00:51.152Z,17.69
2018-08-25T06:03:24.260Z,17.69
2018-08-25T06:05:57.312Z,17.75
2018-08-25T06:08:30.312Z,17.75
2018-08-25T06:11:03.590Z,17.81
2018-08-25T06:13:36.950Z,17.81
2018-08-25T06:16:09.950Z,17.87
2018-08-25T06:18:43.069Z,17.81
2018-08-25T06:21:16.723Z,17.87
2018-08-25T06:23:50.093Z,17.94
2018-08-25T06:26:23.228Z,17.87
2018-08-25T06:28:56.383Z,17.87
2018-08-25T06:31:29.381Z,17.94
2018-08-25T06:34:02.535Z,18.19
2018-08-25T06:36:35.708Z,18.44
2018-08-25T06:39:09.809Z,18.31
2018-08-25T06:41:43.120Z,18.56
2018-08-25T06:44:16.404Z,18.56
2018-08-25T06:46:49.557Z,18.37
2018-08-25T06:49:22.842Z,18.62
2018-08-25T06:51:56.072Z,18.69
2018-08-25T06:54:29.244Z,18.62
2018-08-25T06:57:02.459Z,18.69
2018-08-25T06:59:35.593Z,18.75
2018-08-25T07:02:08.681Z,18.75
2018-08-25T07:04:41.879Z,19.12
2018-08-25T07:07:15.088Z,19.44
2018-08-25T07:09:48.463Z,19.31
2018-08-25T07:12:21.569Z,19.44
2018-08-25T07:14:54.872Z,19.44
2018-08-25T07:17:28.095Z,19.44
2018-08-25T07:20:01.134Z,19.44
2018-08-25T07:22:34.404Z,19.50
2018-08-25T07:25:07.611Z,19.44
2018-08-25T07:27:40.946Z,19.62
2018-08-25T07:30:14.047Z,19.00
2018-08-25T07:32:48.240Z,18.87
2018-08-25T07:35:21.252Z,19.25
2018-08-25T07:37:54.322Z,19.06
2018-08-25T07:40:27.629Z,19.31
2018-08-25T07:43:00.808Z,18.81
2018-08-25T07:45:33.862Z,19.00
2018-08-25T07:48:06.994Z,19.37
2018-08-25T07:50:40.260Z,19.12
2018-08-25T07:53:13.293Z,19.25
2018-08-25T07:55:46.645Z,19.25
2018-08-25T07:58:19.935Z,19.37
2018-08-25T08:00:53.156Z,19.44
2018-08-25T08:03:26.342Z,19.50
2018-08-25T08:05:59.626Z,19.25
2018-08-25T08:08:32.812Z,19.19
2018-08-25T08:11:05.920Z,19.31
2018-08-25T08:13:39.167Z,19.56
2018-08-25T08:16:12.301Z,19.44
2018-08-25T08:18:45.493Z,19.62
2018-08-25T08:21:18.796Z,19.87
2018-08-25T08:23:52.037Z,20.06
2018-08-25T08:26:25.207Z,19.94
2018-08-25T08:28:58.407Z,19.69
2018-08-25T08:31:31.507Z,19.75
2018-08-25T08:34:04.535Z,20.06
2018-08-25T08:36:37.839Z,19.87
2018-08-25T08:39:10.864Z,20.00
2018-08-25T08:41:44.084Z,19.69
2018-08-25T08:44:17.220Z,19.69
2018-08-25T08:46:50.619Z,20.25
2018-08-25T08:49:23.851Z,19.94
2018-08-25T08:51:56.928Z,20.50
2018-08-25T08:54:30.334Z,20.19
2018-08-25T08:57:03.356Z,20.06
2018-08-25T08:59:36.532Z,19.94
2018-08-25T09:02:10.600Z,21.62
2018-08-25T09:04:43.774Z,21.06
2018-08-25T09:07:16.882Z,20.94
2018-08-25T09:09:53.759Z,21.56
2018-08-25T09:12:27.739Z,22.06
2018-08-25T09:15:00.845Z,22.06
2018-08-25T09:17:33.939Z,21.87
2018-08-25T09:20:07.013Z,21.81
2018-08-25T09:22:40.217Z,22.06
2018-08-25T09:25:13.245Z,22.50
2018-08-25T09:27:46.469Z,22.13
2018-08-25T09:30:22.683Z,21.56
2018-08-25T09:32:55.928Z,21.81
2018-08-25T09:35:29.121Z,21.81
2018-08-25T09:38:02.317Z,21.75
2018-08-25T09:40:35.462Z,21.87
2018-08-25T09:43:08.562Z,21.62
2018-08-25T09:45:41.724Z,21.75
2018-08-25T09:48:16.950Z,21.75
2018-08-25T09:50:50.030Z,21.87
2018-08-25T09:53:23.076Z,22.00
2018-08-25T09:55:56.217Z,21.62
2018-08-25T09:58:29.259Z,21.87
2018-08-25T10:01:04.833Z,22.00
2018-08-25T10:03:39.043Z,22.00
2018-08-25T10:06:12.221Z,21.94
2018-08-25T10:08:45.339Z,21.87
2018-08-25T10:11:18.313Z,21.81
2018-08-25T10:13:51.540Z,22.00
2018-08-25T10:16:24.704Z,22.13
2018-08-25T10:18:57.827Z,22.06
2018-08-25T10:21:31.022Z,21.94
2018-08-25T10:24:04.228Z,22.13
2018-08-25T10:26:37.482Z,22.13
2018-08-25T10:29:10.537Z,22.25
2018-08-25T10:31:56.042Z,22.25
2018-08-25T10:34:29.222Z,22.31
2018-08-25T10:37:02.435Z,22.37
2018-08-25T10:39:35.521Z,22.25
2018-08-25T10:42:08.804Z,22.50
2018-08-25T10:44:41.990Z,22.44
2018-08-25T10:47:15.279Z,22.31
2018-08-25T10:49:48.545Z,22.31
2018-08-25T10:52:21.666Z,22.37
2018-08-25T10:54:54.771Z,22.44
2018-08-25T10:57:27.985Z,22.44
2018-08-25T11:00:01.179Z,22.50
2018-08-25T11:02:34.247Z,22.31
2018-08-25T11:05:07.392Z,22.37
2018-08-25T11:07:40.963Z,22.25
2018-08-25T11:10:14.191Z,22.25
2018-08-25T11:12:47.475Z,22.25
2018-08-25T11:15:20.485Z,21.81
2018-08-25T11:17:53.573Z,22.19
2018-08-25T11:20:27.179Z,22.13
2018-08-25T11:23:00.412Z,22.00
2018-08-25T11:25:33.589Z,22.00
2018-08-25T11:28:06.676Z,22.00
2018-08-25T11:30:39.981Z,22.00
2018-08-25T11:33:13.040Z,22.00
2018-08-25T11:35:46.344Z,21.81
2018-08-25T11:38:19.326Z,22.06
2018-08-25T11:40:52.516Z,22.06
2018-08-25T11:43:25.700Z,22.19
2018-08-25T11:45:58.813Z,22.19
2018-08-25T11:48:31.953Z,22.06
2018-08-25T11:51:05.093Z,22.37
2018-08-25T11:53:38.056Z,22.25
2018-08-25T11:56:11.252Z,22.50
2018-08-25T11:58:44.221Z,22.56
2018-08-25T12:01:17.393Z,22.50
2018-08-25T12:03:58.345Z,22.56
2018-08-25T12:06:31.387Z,22.69
2018-08-25T12:09:07.413Z,22.56
2018-08-25T12:11:40.827Z,22.69
2018-08-25T12:14:13.847Z,22.62
2018-08-25T12:16:47.584Z,22.62
2018-08-25T12:19:20.788Z,22.69
2018-08-25T12:21:54.027Z,22.56
2018-08-25T12:24:27.084Z,22.50
2018-08-25T12:27:01.254Z,22.62
2018-08-25T12:29:34.308Z,22.56
2018-08-25T12:32:07.437Z,22.50
2018-08-25T12:34:40.666Z,22.50
2018-08-25T12:37:13.872Z,22.37
2018-08-25T12:39:46.923Z,22.13
2018-08-25T12:42:20.113Z,22.25
2018-08-25T12:44:53.368Z,22.00
2018-08-25T12:47:26.845Z,22.06
2018-08-25T12:49:59.906Z,22.06
2018-08-25T12:52:33.089Z,22.19
2018-08-25T12:55:06.471Z,21.94
2018-08-25T12:57:39.667Z,22.06
2018-08-25T13:00:12.883Z,22.00
2018-08-25T13:02:46.128Z,21.62
2018-08-25T13:05:19.247Z,21.75
2018-08-25T13:07:52.463Z,21.50
2018-08-25T13:10:25.858Z,21.31
2018-08-25T13:12:59.026Z,21.00
2018-08-25T13:15:32.292Z,21.00
2018-08-25T13:18:05.368Z,20.94
2018-08-25T13:20:38.586Z,20.50
2018-08-25T13:23:11.630Z,20.62
2018-08-25T13:25:44.690Z,20.50
2018-08-25T13:28:17.726Z,20.44
2018-08-25T13:30:50.849Z,20.12
2018-08-25T13:38:28.877Z,19.81
2018-08-25T13:41:01.945Z,19.81
2018-08-25T13:43:35.145Z,19.31
2018-08-25T13:46:08.059Z,19.12
2018-08-25T13:48:41.147Z,18.87
2018-08-25T13:51:14.266Z,18.50
2018-08-25T13:53:47.418Z,18.69
2018-08-25T13:56:20.405Z,18.69
2018-08-25T13:58:53.666Z,18.75
2018-08-25T14:01:27.380Z,18.75
2018-08-25T14:04:00.534Z,18.56
2018-08-25T14:06:33.700Z,18.37
2018-08-25T14:09:07.348Z,18.50
2018-08-25T14:11:40.444Z,18.44
2018-08-25T14:14:13.635Z,18.31
2018-08-25T14:16:46.759Z,18.19
2018-08-25T14:19:19.862Z,18.37
2018-08-25T14:21:53.035Z,18.12
2018-08-25T14:24:26.221Z,18.37
2018-08-25T14:26:59.429Z,18.50
2018-08-25T14:29:32.643Z,18.00
2018-08-25T14:32:05.905Z,18.00
2018-08-25T14:34:39.047Z,17.81
2018-08-25T14:37:12.144Z,17.75
2018-08-25T14:39:45.492Z,18.44
2018-08-25T14:42:18.672Z,18.62
2018-08-25T14:44:51.791Z,18.50
2018-08-25T14:47:24.887Z,19.00
2018-08-25T14:49:58.084Z,19.12
2018-08-25T14:52:31.018Z,18.44
2018-08-25T14:55:04.090Z,19.25
2018-08-25T14:57:37.323Z,18.75
2018-08-25T15:00:10.448Z,18.94
2018-08-25T15:02:47.356Z,19.12
2018-08-25T15:05:20.378Z,18.94
2018-08-25T15:07:53.464Z,19.25
2018-08-25T15:10:26.768Z,19.69
2018-08-25T15:12:59.818Z,19.69
2018-08-25T15:15:33.016Z,19.44
2018-08-25T15:18:06.158Z,19.44
2018-08-25T15:20:39.196Z,19.81
2018-08-25T15:23:12.392Z,20.06
2018-08-25T15:25:45.531Z,20.06
2018-08-25T15:28:18.672Z,19.31
2018-08-25T15:30:51.696Z,20.31
2018-08-25T15:33:24.787Z,19.94
2018-08-25T15:35:58.154Z,20.06
2018-08-25T15:38:31.373Z,20.50
2018-08-25T15:41:04.852Z,20.31
2018-08-25T15:43:37.844Z,20.25
2018-08-25T15:46:11.036Z,20.12
2018-08-25T15:48:44.184Z,19.87
2018-08-25T15:51:17.188Z,20.56
2018-08-25T15:53:50.338Z,20.31
2018-08-25T15:56:23.480Z,20.37
2018-08-25T15:58:56.650Z,20.62
2018-08-25T16:01:29.674Z,20.37
2018-08-25T16:04:02.786Z,19.94
2018-08-25T16:06:35.936Z,20.25
2018-08-25T16:09:09.963Z,20.12
2018-08-25T16:11:43.104Z,20.19
2018-08-25T16:14:16.179Z,20.56
2018-08-25T16:16:49.411Z,20.81
2018-08-25T16:19:22.565Z,20.37
2018-08-25T16:21:55.595Z,20.62
2018-08-25T16:24:28.958Z,20.62
2018-08-25T16:27:02.003Z,20.00
2018-08-25T16:29:35.084Z,20.06
2018-08-25T16:32:08.201Z,20.00
2018-08-25T16:34:41.482Z,19.94
2018-08-25T16:37:14.454Z,19.44
2018-08-25T16:39:47.637Z,19.12
2018-08-25T16:42:20.738Z,19.31
2018-08-25T16:44:53.767Z,19.19
2018-08-25T16:47:26.886Z,19.25
2018-08-25T16:49:59.874Z,19.00
2018-08-25T16:52:32.909Z,18.87
2018-08-25T16:55:06.048Z,18.31
2018-08-25T16:57:39.205Z,18.37
2018-08-25T17:00:12.174Z,18.31
2018-08-25T17:02:45.131Z,18.87
2018-08-25T17:05:18.456Z,19.06
2018-08-25T17:07:51.511Z,19.25
2018-08-25T17:10:24.579Z,19.37
2018-08-25T17:12:58.015Z,18.62
2018-08-25T17:15:31.071Z,18.62
2018-08-25T17:18:04.451Z,19.00
2018-08-25T17:20:37.587Z,19.37
2018-08-25T17:23:11.163Z,19.25
2018-08-25T17:25:44.574Z,19.25
2018-08-25T17:28:17.695Z,19.44
2018-08-25T17:30:50.923Z,19.44
2018-08-25T17:33:24.095Z,18.87
2018-08-25T17:35:57.540Z,18.94
2018-08-25T17:38:30.536Z,18.81
2018-08-25T17:41:03.676Z,19.00
2018-08-25T17:43:36.866Z,18.44
2018-08-25T17:46:09.932Z,18.25
2018-08-25T17:48:43.207Z,18.37
2018-08-25T17:51:16.362Z,19.06
2018-08-25T17:53:49.427Z,18.81
2018-08-25T17:56:22.579Z,18.44
2018-08-25T17:58:55.597Z,17.94
2018-08-25T18:01:28.783Z,18.31
2018-08-25T18:04:01.790Z,18.50
2018-08-25T18:06:34.887Z,18.19
2018-08-25T18:09:08.415Z,18.31
2018-08-25T18:11:41.660Z,18.56
2018-08-25T18:14:14.915Z,18.06
2018-08-25T18:16:49.043Z,18.00
2018-08-25T18:19:22.037Z,18.25
2018-08-25T18:21:55.199Z,17.56
2018-08-25T18:24:28.274Z,17.75
2018-08-25T18:27:01.290Z,17.56
2018-08-25T18:29:34.456Z,17.25
2018-08-25T18:32:07.466Z,17.25
2018-08-25T18:34:40.508Z,17.62
2018-08-25T18:37:14.027Z,17.44
2018-08-25T18:39:47.069Z,17.44
2018-08-25T18:42:20.234Z,17.19
2018-08-25T18:44:53.295Z,17.62
2018-08-25T18:47:26.688Z,17.50
2018-08-25T18:49:59.819Z,18.12
2018-08-25T18:52:32.836Z,17.69
2018-08-25T18:55:06.124Z,17.25
2018-08-25T18:57:39.172Z,17.25
2018-08-25T19:00:12.385Z,17.19
2018-08-25T19:02:45.676Z,16.94
2018-08-25T19:05:19.554Z,16.75
2018-08-25T19:07:52.572Z,16.75
2018-08-25T19:10:25.562Z,16.87
2018-08-25T19:12:58.789Z,16.81
2018-08-25T19:15:31.767Z,16.62
2018-08-25T19:18:04.810Z,16.62
2018-08-25T19:20:37.991Z,16.69
2018-08-25T19:23:11.139Z,16.56
2018-08-25T19:25:44.302Z,16.50
2018-08-25T19:28:17.371Z,16.56
2018-08-25T19:30:50.424Z,16.50
2018-08-25T19:33:23.561Z,16.37
2018-08-25T19:35:57.618Z,16.50
2018-08-25T19:38:30.824Z,16.44
2018-08-25T19:41:04.506Z,16.37
2018-08-25T19:43:38.035Z,16.25
2018-08-25T19:46:11.241Z,16.31
2018-08-25T19:48:44.950Z,16.25
2018-08-25T19:51:18.237Z,16.25
2018-08-25T19:53:52.605Z,16.19
2018-08-25T19:56:25.660Z,16.06
2018-08-25T19:58:58.849Z,16.06
2018-08-25T20:01:32.048Z,16.00
2018-08-25T20:04:05.385Z,16.06
2018-08-25T20:06:38.393Z,16.00
2018-08-25T20:09:13.110Z,16.06
2018-08-25T20:11:46.156Z,16.06
2018-08-25T20:14:19.308Z,15.94
2018-08-25T20:16:52.345Z,16.00
2018-08-25T20:19:25.629Z,15.94
2018-08-25T20:21:58.840Z,16.00
2018-08-25T20:24:31.945Z,16.06
2018-08-25T20:27:06.614Z,16.00
2018-08-25T20:29:39.856Z,16.00
2018-08-25T20:32:12.997Z,15.94
2018-08-25T20:34:46.077Z,16.00
2018-08-25T20:37:19.287Z,16.12
2018-08-25T20:39:52.460Z,16.12
2018-08-25T20:42:33.185Z,16.37
2018-08-25T20:45:06.406Z,16.00
2018-08-25T20:47:39.959Z,15.81
2018-08-25T20:50:13.429Z,15.81
2018-08-25T20:52:48.155Z,15.75
2018-08-25T20:55:22.384Z,15.81
2018-08-25T20:57:56.286Z,16.31
2018-08-25T21:05:22.382Z,16.19
2018-08-25T21:12:47.732Z,16.00
2018-08-25T21:15:20.936Z,16.12
2018-08-25T21:17:54.924Z,16.06
2018-08-25T21:20:28.113Z,15.94
2018-08-25T21:23:01.333Z,15.88
2018-08-25T21:25:34.251Z,15.88
2018-08-25T21:28:07.620Z,15.69
2018-08-25T21:30:40.761Z,15.63
2018-08-25T21:33:14.020Z,15.88
2018-08-25T21:35:47.121Z,15.94
2018-08-25T21:38:20.442Z,15.75
2018-08-25T21:40:53.599Z,15.56
2018-08-25T21:43:26.790Z,15.50
2018-08-25T21:45:59.753Z,15.63
2018-08-25T21:48:32.790Z,15.56
2018-08-25T21:51:05.819Z,15.38
2018-08-25T21:53:38.789Z,15.38
2018-08-25T21:56:11.815Z,15.31
2018-08-25T21:58:45.000Z,15.31
2018-08-25T22:01:18.229Z,15.38
2018-08-25T22:03:51.353Z,15.44
2018-08-25T22:06:24.489Z,15.44
2018-08-25T22:08:58.403Z,15.31
2018-08-25T22:11:31.570Z,15.44
2018-08-25T22:14:04.887Z,15.38
2018-08-25T22:16:38.430Z,15.69
2018-08-25T22:19:11.464Z,15.44
2018-08-25T22:21:44.552Z,15.44
2018-08-25T22:24:17.827Z,15.25
2018-08-25T22:26:51.060Z,15.38
2018-08-25T22:29:24.163Z,15.56
2018-08-25T22:31:57.391Z,15.50
2018-08-25T22:34:30.791Z,15.50
2018-08-25T22:37:04.032Z,15.38
2018-08-25T22:39:37.222Z,15.38
2018-08-25T22:42:10.312Z,15.31
2018-08-25T22:44:43.331Z,15.38
2018-08-25T22:49:44.161Z,15.44
2018-08-25T22:52:21.986Z,15.19
2018-08-25T22:54:55.140Z,15.06
2018-08-25T22:57:28.166Z,15.06
2018-08-25T23:00:01.070Z,14.87
2018-08-25T23:02:34.176Z,14.94
2018-08-25T23:05:07.603Z,15.00
2018-08-25T23:07:40.498Z,15.13
2018-08-25T23:10:13.397Z,15.00
2018-08-25T23:12:46.635Z,15.19
2018-08-25T23:15:19.806Z,15.25
2018-08-25T23:17:56.505Z,15.25
2018-08-25T23:20:30.330Z,15.13
2018-08-25T23:23:03.476Z,14.75
2018-08-25T23:25:36.424Z,15.00
2018-08-25T23:28:09.509Z,15.00
2018-08-25T23:30:42.515Z,15.25
2018-08-25T23:33:15.655Z,14.87
2018-08-25T23:35:48.823Z,14.75
2018-08-25T23:38:22.057Z,14.81
2018-08-25T23:40:55.102Z,14.81
2018-08-25T23:43:28.146Z,14.75
2018-08-25T23:46:01.245Z,14.87
2018-08-25T23:48:34.336Z,14.81
2018-08-25T23:51:07.516Z,14.69
2018-08-25T23:53:40.552Z,14.75
2018-08-25T23:56:13.703Z,14.75
2018-08-25T23:58:46.811Z,14.75
